createdAt,value
2018-03-26T04:14:01.324Z,0.1
2018-03-26T04:15:01.095Z,0.1
2018-03-26T04:16:01.129Z,0.2
2018-03-26T04:17:01.097Z,0.3
2018-03-26T04:19:01.364Z,0.4
2018-03-26T04:20:01.098Z,0.5
2018-03-26T04:22:01.128Z,0.6
2018-03-26T04:23:01.099Z,0.7
2018-03-26T04:24:01.238Z,0.9
2018-03-26T04:25:01.097Z,1.0
2018-03-26T04:26:01.104Z,1.1
2018-03-26T04:27:01.159Z,1.3
2018-03-26T04:28:01.096Z,1.5
2018-03-26T04:29:01.380Z,1.7
2018-03-26T04:30:01.098Z,2.0
2018-03-26T04:31:01.102Z,2.3
2018-03-26T04:32:01.173Z,2.8
2018-03-26T04:33:01.098Z,3.3
2018-03-26T04:34:01.321Z,3.9
2018-03-26T04:35:01.130Z,4.6
2018-03-26T04:36:01.107Z,5.4
2018-03-26T04:37:01.166Z,6.3
2018-03-26T04:38:01.098Z,7.4
2018-03-26T04:39:01.278Z,8.7
2018-03-26T04:41:01.087Z,10.7
2018-03-26T04:42:01.083Z,13.3
2018-03-26T04:43:01.086Z,16.3
2018-03-26T04:44:01.118Z,20.1
2018-03-26T04:45:01.223Z,24.6
2018-03-26T04:46:01.086Z,29.7
2018-03-26T04:47:01.087Z,35.0
2018-03-26T04:48:01.089Z,40.7
2018-03-26T04:49:01.117Z,47.1
2018-03-26T04:50:01.224Z,54.4
2018-03-26T04:51:01.084Z,62.5
2018-03-26T04:52:01.091Z,71.7
2018-03-26T04:53:01.092Z,82.7
2018-03-26T04:54:01.225Z,95.5
2018-03-26T04:55:01.225Z,111.1
2018-03-26T04:56:01.090Z,128.9
2018-03-26T04:57:01.087Z,148.8
2018-03-26T04:58:01.085Z,170.6
2018-03-26T04:59:01.120Z,195.7
2018-03-26T05:00:01.294Z,222.2
2018-03-26T05:01:01.088Z,252.0
2018-03-26T05:02:01.099Z,285.3
2018-03-26T05:03:01.092Z,321.4
2018-03-26T05:04:01.090Z,362.1
2018-03-26T05:05:01.267Z,406.3
2018-03-26T05:06:01.095Z,454.7
2018-03-26T05:07:01.093Z,505.2
2018-03-26T05:08:01.093Z,562.7
2018-03-26T05:09:01.100Z,620.3
2018-03-26T05:10:01.271Z,680.6
2018-03-26T05:11:01.096Z,745.7
2018-03-26T05:12:01.100Z,814.1
2018-03-26T05:13:01.096Z,889.7
2018-03-26T05:14:01.092Z,966.2
2018-03-26T05:15:01.258Z,1056.1
2018-03-26T05:16:01.093Z,1148.6
2018-03-26T05:17:01.094Z,1247.4
2018-03-26T05:18:01.099Z,1346.9
2018-03-26T05:19:01.092Z,1442.7
2018-03-26T05:20:01.264Z,1535.0
2018-03-26T05:21:01.092Z,1623.1
2018-03-26T05:22:01.094Z,1715.4
2018-03-26T05:23:01.092Z,1816.6
2018-03-26T05:24:01.095Z,1925.4
2018-03-26T05:25:01.264Z,2034.3
2018-03-26T05:26:01.093Z,2142.1
2018-03-26T05:27:01.100Z,2246.1
2018-03-26T05:28:01.097Z,2360.9
2018-03-26T05:29:01.099Z,2479.4
2018-03-26T05:30:01.270Z,2597.1
2018-03-26T05:31:01.105Z,2731.7
2018-03-26T05:32:01.098Z,2857.2
2018-03-26T05:33:01.096Z,2971.2
2018-03-26T05:34:01.096Z,3111.9
2018-03-26T05:35:01.354Z,3264.7
2018-03-26T05:36:01.097Z,3439.2
2018-03-26T05:37:01.137Z,3608.9
2018-03-26T05:38:01.098Z,3772.5
2018-03-26T05:39:01.100Z,3908.1
2018-03-26T05:40:01.310Z,4066.4
2018-03-26T05:41:01.105Z,4246.5
2018-03-26T05:42:01.128Z,4443.1
2018-03-26T05:43:01.098Z,4598.8
2018-03-26T05:44:01.102Z,4744.9
2018-03-26T05:45:01.268Z,4876.8
2018-03-26T05:46:01.098Z,4984.7
2018-03-26T05:47:01.103Z,5116.3
2018-03-26T05:48:01.144Z,5260.4
2018-03-26T05:50:01.296Z,5372.8
2018-03-26T05:51:01.085Z,5489.4
2018-03-26T05:52:01.084Z,5607.0
2018-03-26T05:53:01.084Z,5710.9
2018-03-26T05:54:01.120Z,5803.7
2018-03-26T05:55:01.230Z,5928.3
2018-03-26T05:56:01.085Z,6023.5
2018-03-26T05:57:01.087Z,6114.5
2018-03-26T05:58:01.090Z,6217.2
2018-03-26T05:59:01.119Z,6336.9
2018-03-26T06:00:01.404Z,6484.3
2018-03-26T06:01:01.086Z,6651.7
2018-03-26T06:02:01.085Z,6874.2
2018-03-26T06:03:01.089Z,7089.9
2018-03-26T06:04:01.091Z,7340.7
2018-03-26T06:05:01.270Z,7584.2
2018-03-26T06:06:01.085Z,7794.0
2018-03-26T06:07:01.087Z,7959.9
2018-03-26T06:08:01.087Z,8143.0
2018-03-26T06:09:01.087Z,8372.5
2018-03-26T06:10:01.258Z,8728.0
2018-03-26T06:11:01.087Z,9116.7
2018-03-26T06:12:01.117Z,9458.9
2018-03-26T06:13:01.091Z,9822.7
2018-03-26T06:14:01.095Z,10320.4
2018-03-26T06:15:01.232Z,10758.8
2018-03-26T06:16:01.091Z,11200.3
2018-03-26T06:17:01.121Z,11550.9
2018-03-26T06:18:01.095Z,11866.3
2018-03-26T06:19:01.110Z,12134.3
2018-03-26T06:20:01.239Z,12437.6
2018-03-26T06:21:01.096Z,12759.4
2018-03-26T06:22:01.127Z,13151.4
2018-03-26T06:23:01.123Z,13493.3
2018-03-26T06:24:01.097Z,13845.1
2018-03-26T06:25:01.291Z,14266.5
2018-03-26T06:26:01.096Z,14737.6
2018-03-26T06:27:01.137Z,15139.7
2018-03-26T06:28:01.098Z,15482.3
2018-03-26T06:29:01.098Z,15672.9
2018-03-26T06:30:01.303Z,16009.2
2018-03-26T06:31:01.142Z,16330.3
2018-03-26T06:32:01.132Z,16626.7
2018-03-26T06:33:01.103Z,16899.1
2018-03-26T06:34:01.108Z,17176.7
2018-03-26T06:35:01.318Z,17355.1
2018-03-26T06:36:01.094Z,17498.3
2018-03-26T06:37:01.128Z,17603.2
2018-03-26T06:38:01.103Z,17746.5
2018-03-26T06:39:01.096Z,17745.1
2018-03-26T06:40:01.247Z,17448.1
2018-03-26T06:41:01.127Z,17093.7
2018-03-26T06:43:01.082Z,16867.9
2018-03-26T06:44:01.085Z,16707.7
2018-03-26T06:45:01.292Z,16586.8
2018-03-26T06:46:01.119Z,16351.9
2018-03-26T06:47:01.093Z,16133.8
2018-03-26T06:48:01.118Z,15927.7
2018-03-26T06:49:01.085Z,15638.3
2018-03-26T06:50:01.227Z,15494.5
2018-03-26T06:51:01.095Z,15447.9
2018-03-26T06:52:01.087Z,15423.8
2018-03-26T06:53:01.118Z,15393.0
2018-03-26T06:54:01.086Z,15433.2
2018-03-26T06:55:01.233Z,15563.2
2018-03-26T06:56:01.089Z,15805.9
2018-03-26T06:57:01.086Z,16067.0
2018-03-26T06:58:01.120Z,16292.7
2018-03-26T06:59:01.088Z,16396.0
2018-03-26T07:00:01.231Z,16488.5
2018-03-26T07:01:01.098Z,16546.9
2018-03-26T07:02:01.091Z,16645.7
2018-03-26T07:03:01.121Z,16826.8
2018-03-26T07:04:01.093Z,17161.5
2018-03-26T07:05:01.235Z,17360.5
2018-03-26T07:06:01.095Z,17546.6
2018-03-26T07:07:01.094Z,17739.7
2018-03-26T07:08:01.128Z,17981.5
2018-03-26T07:09:01.092Z,18177.5
2018-03-26T07:10:01.230Z,18346.8
2018-03-26T07:11:01.094Z,18463.5
2018-03-26T07:12:01.092Z,18468.3
2018-03-26T07:13:01.115Z,18505.7
2018-03-26T07:14:01.124Z,18677.1
2018-03-26T07:15:01.232Z,18927.3
2018-03-26T07:16:01.092Z,19302.8
2018-03-26T07:17:01.090Z,19664.5
2018-03-26T07:18:01.087Z,20054.7
2018-03-26T07:19:01.198Z,20435.0
2018-03-26T07:20:01.231Z,20809.5
2018-03-26T07:21:01.092Z,21224.7
2018-03-26T07:22:01.094Z,21661.4
2018-03-26T07:23:01.088Z,22000.3
2018-03-26T07:24:01.089Z,22302.9
2018-03-26T07:25:01.300Z,22599.1
2018-03-26T07:26:01.085Z,22830.3
2018-03-26T07:27:01.087Z,23718.9
2018-03-26T07:28:01.122Z,25212.8
2018-03-26T07:29:01.101Z,26819.0
2018-03-26T07:30:01.345Z,28692.2
2018-03-26T07:31:01.091Z,30488.1
2018-03-26T07:32:01.089Z,32527.3
2018-03-26T07:33:01.093Z,35291.3
2018-03-26T07:34:01.089Z,38036.4
2018-03-26T07:35:01.260Z,40019.2
2018-03-26T07:36:01.088Z,41624.3
2018-03-26T07:37:01.090Z,43140.7
2018-03-26T07:38:01.135Z,44774.1
2018-03-26T07:39:01.093Z,46376.5
2018-03-26T07:40:01.230Z,48120.9
2018-03-26T07:41:01.091Z,50223.9
2018-03-26T07:42:01.093Z,51931.9
2018-03-26T07:43:01.124Z,52886.5
2018-03-26T07:44:01.095Z,54063.4
2018-03-26T07:45:01.241Z,55026.5
2018-03-26T07:46:01.111Z,55732.6
2018-03-26T07:47:01.090Z,56519.4
2018-03-26T07:50:01.387Z,57279.5
2018-03-26T07:51:01.060Z,58366.7
2018-03-26T07:52:01.095Z,59525.3
2018-03-26T07:53:01.124Z,60610.6
2018-03-26T07:54:01.098Z,61743.7
2018-03-26T07:55:01.236Z,62765.7
2018-03-26T07:56:01.095Z,63520.7
2018-03-26T07:57:01.131Z,64081.9
2018-03-26T07:58:01.102Z,64757.0
2018-03-26T07:59:01.094Z,65027.7
2018-03-26T08:00:01.332Z,65159.5
2018-03-26T08:01:01.094Z,65535.0
2018-03-26T08:15:01.324Z,65535.0
2018-03-26T08:30:01.384Z,65535.0
2018-03-26T08:45:01.263Z,65535.0
2018-03-26T09:00:02.428Z,65535.0
2018-03-26T09:15:01.396Z,65535.0
2018-03-26T09:30:01.373Z,65535.0
2018-03-26T09:45:01.391Z,65535.0
2018-03-26T10:00:01.481Z,65535.0
2018-03-26T10:06:01.258Z,65513.3
2018-03-26T10:15:01.095Z,65513.3
2018-03-26T10:21:01.399Z,65535.0
2018-03-26T10:30:01.256Z,65535.0
2018-03-26T10:45:01.099Z,65535.0
2018-03-26T11:00:01.089Z,65535.0
2018-03-26T11:10:01.250Z,65509.9
2018-03-26T11:11:01.405Z,65011.3
2018-03-26T11:12:01.101Z,64076.2
2018-03-26T11:13:01.098Z,62810.8
2018-03-26T11:14:01.100Z,61273.0
2018-03-26T11:15:01.094Z,59557.6
2018-03-26T11:16:01.274Z,57865.4
2018-03-26T11:17:01.101Z,56394.7
2018-03-26T11:18:01.097Z,55288.9
2018-03-26T11:19:01.097Z,54410.7
2018-03-26T11:20:01.105Z,53524.5
2018-03-26T11:21:01.266Z,52797.2
2018-03-26T11:22:01.100Z,52538.7
2018-03-26T11:23:01.100Z,52511.3
2018-03-26T11:24:01.134Z,52430.2
2018-03-26T11:25:01.096Z,52422.5
2018-03-26T11:26:01.265Z,52921.0
2018-03-26T11:27:01.103Z,53856.1
2018-03-26T11:28:01.185Z,55121.5
2018-03-26T11:29:01.131Z,56659.3
2018-03-26T11:30:01.097Z,58374.7
2018-03-26T11:31:01.246Z,60066.9
2018-03-26T11:32:01.076Z,61537.6
2018-03-26T11:33:01.100Z,62643.5
2018-03-26T11:34:01.136Z,63521.6
2018-03-26T11:35:01.100Z,64407.9
2018-03-26T11:36:01.240Z,65135.1
2018-03-26T11:37:01.097Z,65393.7
2018-03-26T11:38:01.097Z,65421.0
2018-03-26T11:39:01.126Z,65502.1
2018-03-26T11:40:01.096Z,65535.0
2018-03-26T11:45:01.103Z,65535.0
2018-03-26T12:00:01.172Z,65535.0
2018-03-26T12:01:01.225Z,65428.1
2018-03-26T12:02:01.084Z,65047.6
2018-03-26T12:03:01.112Z,64321.6
2018-03-26T12:04:01.086Z,63271.7
2018-03-26T12:05:01.085Z,61946.9
2018-03-26T12:06:01.258Z,60506.4
2018-03-26T12:07:01.087Z,58943.7
2018-03-26T12:08:01.086Z,57206.7
2018-03-26T12:09:01.083Z,55340.1
2018-03-26T12:10:01.089Z,53506.1
2018-03-26T12:11:01.257Z,51898.7
2018-03-26T12:12:01.125Z,50439.3
2018-03-26T12:13:01.121Z,48985.7
2018-03-26T12:14:01.090Z,47841.6
2018-03-26T12:15:01.086Z,47286.9
2018-03-26T12:16:01.296Z,47303.9
2018-03-26T12:17:01.089Z,47684.4
2018-03-26T12:18:01.132Z,48410.4
2018-03-26T12:19:01.089Z,49460.3
2018-03-26T12:20:01.092Z,50785.1
2018-03-26T12:21:01.228Z,52225.6
2018-03-26T12:22:01.093Z,53788.3
2018-03-26T12:23:01.131Z,55525.3
2018-03-26T12:24:01.089Z,57391.9
2018-03-26T12:25:01.092Z,59225.9
2018-03-26T12:26:01.263Z,60833.3
2018-03-26T12:27:01.099Z,62292.7
2018-03-26T12:28:01.137Z,63746.3
2018-03-26T12:29:01.087Z,64890.4
2018-03-26T12:30:01.088Z,65445.1
2018-03-26T12:31:01.243Z,65535.0
2018-03-26T12:45:01.467Z,65535.0
2018-03-26T12:59:02.420Z,65490.5
2018-03-26T13:00:01.106Z,64824.5
2018-03-26T13:01:01.093Z,63445.5
2018-03-26T13:02:01.094Z,61640.8
2018-03-26T13:03:01.092Z,59888.7
2018-03-26T13:04:01.293Z,58376.9
2018-03-26T13:05:01.096Z,57116.3
2018-03-26T13:06:01.096Z,56103.8
2018-03-26T13:07:01.126Z,55282.9
2018-03-26T13:08:01.096Z,54710.4
2018-03-26T13:09:01.244Z,54467.3
2018-03-26T13:14:01.268Z,54511.8
2018-03-26T13:15:01.097Z,55177.9
2018-03-26T13:17:01.080Z,56556.8
2018-03-26T13:18:01.081Z,58361.5
2018-03-26T13:19:01.281Z,60113.6
2018-03-26T13:20:01.082Z,61625.5
2018-03-26T13:21:01.089Z,62886.0
2018-03-26T13:22:01.085Z,63898.5
2018-03-26T13:23:01.081Z,64719.4
2018-03-26T13:24:01.288Z,65291.9
2018-03-26T13:25:01.080Z,65535.0
2018-03-26T13:30:01.387Z,65535.0
2018-03-26T13:45:01.089Z,65535.0
2018-03-26T14:00:01.240Z,65535.0
2018-03-26T14:15:01.397Z,65535.0
2018-03-26T14:30:01.104Z,65535.0
2018-03-26T14:45:01.381Z,65535.0
2018-03-26T15:00:01.116Z,65535.0
2018-03-26T15:15:01.666Z,65535.0
2018-03-26T15:29:01.427Z,65397.1
2018-03-26T15:30:01.088Z,64840.8
2018-03-26T15:31:01.112Z,63958.6
2018-03-26T15:32:01.082Z,62875.3
2018-03-26T15:33:01.084Z,61642.3
2018-03-26T15:34:01.270Z,60225.2
2018-03-26T15:35:01.092Z,58583.7
2018-03-26T15:36:01.090Z,56683.3
2018-03-26T15:37:01.087Z,54501.7
2018-03-26T15:38:01.090Z,52098.2
2018-03-26T15:39:01.272Z,49586.5
2018-03-26T15:40:01.091Z,47023.3
2018-03-26T15:41:01.087Z,44507.3
2018-03-26T15:42:01.095Z,42130.5
2018-03-26T15:43:01.093Z,39980.0
2018-03-26T15:44:01.260Z,38274.7
2018-03-26T15:45:01.121Z,37294.5
2018-03-26T15:46:01.092Z,36883.7
2018-03-26T15:47:01.100Z,36801.7
2018-03-26T15:48:01.094Z,36893.0
2018-03-26T15:49:01.327Z,37165.3
2018-03-26T15:50:01.118Z,37488.2
2018-03-26T15:51:01.097Z,38003.3
2018-03-26T15:52:01.092Z,38929.3
2018-03-26T15:53:01.096Z,40261.3
2018-03-26T15:54:01.300Z,41803.3
2018-03-26T15:55:01.119Z,43444.0
2018-03-26T15:56:01.119Z,44832.5
2018-03-26T15:57:01.097Z,45723.8
2018-03-26T15:58:01.093Z,45893.7
2018-03-26T15:59:01.240Z,45327.5
2018-03-26T16:01:01.128Z,43917.1
2018-03-26T16:02:01.081Z,42259.1
2018-03-26T16:03:01.082Z,40638.4
2018-03-26T16:04:01.080Z,39209.5
2018-03-26T16:05:01.231Z,37991.8
2018-03-26T16:06:01.103Z,37067.3
2018-03-26T16:07:01.085Z,36319.7
2018-03-26T16:08:01.079Z,35465.1
2018-03-26T16:09:01.080Z,34542.3
2018-03-26T16:10:01.257Z,33555.5
2018-03-26T16:11:01.137Z,32669.7
2018-03-26T16:12:01.078Z,32210.9
2018-03-26T16:13:01.080Z,32323.7
2018-03-26T16:14:01.083Z,32986.2
2018-03-26T16:15:01.257Z,34049.5
2018-03-26T16:16:01.079Z,35601.5
2018-03-26T16:17:01.085Z,37175.5
2018-03-26T16:18:01.082Z,38663.9
2018-03-26T16:19:01.120Z,40053.2
2018-03-26T16:20:01.224Z,41309.5
2018-03-26T16:21:01.084Z,42431.9
2018-03-26T16:22:01.117Z,43376.5
2018-03-26T16:23:01.089Z,44228.4
2018-03-26T16:24:01.083Z,44863.5
2018-03-26T16:25:01.250Z,45336.3
2018-03-26T16:26:01.084Z,45533.1
2018-03-26T16:27:01.082Z,45360.9
2018-03-26T16:28:01.110Z,44799.5
2018-03-26T16:29:01.078Z,44033.3
2018-03-26T16:30:01.264Z,43231.8
2018-03-26T16:31:01.085Z,42495.5
2018-03-26T16:32:01.082Z,41804.8
2018-03-26T16:33:01.109Z,41067.0
2018-03-26T16:34:01.082Z,40164.8
2018-03-26T16:35:01.223Z,39101.5
2018-03-26T16:36:01.129Z,37964.4
2018-03-26T16:37:01.089Z,36815.7
2018-03-26T16:38:01.087Z,35683.0
2018-03-26T16:39:01.086Z,34632.4
2018-03-26T16:40:01.230Z,33680.4
2018-03-26T16:41:01.088Z,32844.9
2018-03-26T16:42:01.111Z,32161.1
2018-03-26T16:43:01.084Z,31660.9
2018-03-26T16:44:01.083Z,31297.5
2018-03-26T16:45:01.225Z,31004.8
2018-03-26T16:46:01.150Z,30670.0
2018-03-26T16:47:01.087Z,30244.4
2018-03-26T16:48:01.088Z,29753.2
2018-03-26T16:49:01.086Z,29277.4
2018-03-26T16:50:01.226Z,28823.3
2018-03-26T16:51:01.087Z,28418.5
2018-03-26T16:52:01.092Z,28065.4
2018-03-26T16:53:01.088Z,27748.7
2018-03-26T16:54:01.091Z,27433.5
2018-03-26T16:55:01.256Z,27073.8
2018-03-26T16:56:01.115Z,26649.1
2018-03-26T16:57:01.091Z,26301.7
2018-03-26T16:58:01.089Z,25867.5
2018-03-26T16:59:01.088Z,25321.9
2018-03-26T17:00:01.235Z,24771.3
2018-03-26T17:01:01.118Z,24429.3
2018-03-26T17:02:01.088Z,24225.1
2018-03-26T17:03:01.089Z,24081.1
2018-03-26T17:04:01.092Z,23922.2
2018-03-26T17:05:01.300Z,23762.8
2018-03-26T17:06:01.116Z,23655.8
2018-03-26T17:07:01.091Z,23536.5
2018-03-26T17:08:01.135Z,23328.2
2018-03-26T17:09:01.094Z,23057.4
2018-03-26T17:10:01.239Z,22791.7
2018-03-26T17:11:01.201Z,22578.2
2018-03-26T17:12:01.091Z,22252.5
2018-03-26T17:13:01.090Z,21980.8
2018-03-26T17:14:01.095Z,21803.7
2018-03-26T17:15:01.239Z,21593.8
2018-03-26T17:16:01.128Z,21173.5
2018-03-26T17:17:01.093Z,20608.5
2018-03-26T17:18:01.097Z,19990.4
2018-03-26T17:19:01.093Z,19398.9
2018-03-26T17:20:01.298Z,18839.5
2018-03-26T17:21:01.119Z,18226.7
2018-03-26T17:22:01.097Z,17618.9
2018-03-26T17:23:01.094Z,17083.3
2018-03-26T17:24:01.098Z,16587.1
2018-03-26T17:25:01.243Z,16123.3
2018-03-26T17:26:01.124Z,15651.3
2018-03-26T17:27:01.095Z,15174.9
2018-03-26T17:28:01.096Z,14689.6
2018-03-26T17:29:01.096Z,14202.7
2018-03-26T17:31:01.283Z,13673.6
2018-03-26T17:32:01.079Z,13139.3
2018-03-26T17:33:01.083Z,12608.3
2018-03-26T17:34:01.080Z,12073.5
2018-03-26T17:35:01.085Z,11529.3
2018-03-26T17:36:01.277Z,10986.2
2018-03-26T17:37:01.081Z,10452.5
2018-03-26T17:38:01.115Z,9922.8
2018-03-26T17:39:01.127Z,9400.5
2018-03-26T17:40:01.081Z,8890.3
2018-03-26T17:41:01.227Z,8386.1
2018-03-26T17:42:01.091Z,7887.8
2018-03-26T17:43:01.082Z,7398.7
2018-03-26T17:44:01.111Z,6919.5
2018-03-26T17:45:01.085Z,6449.3
2018-03-26T17:46:01.293Z,6030.5
2018-03-26T17:47:01.083Z,5624.1
2018-03-26T17:48:01.116Z,5229.9
2018-03-26T17:49:01.085Z,4848.1
2018-03-26T17:50:01.085Z,4480.7
2018-03-26T17:51:01.230Z,4129.9
2018-03-26T17:52:01.087Z,3795.7
2018-03-26T17:53:01.112Z,3479.3
2018-03-26T17:54:01.096Z,3177.9
2018-03-26T17:55:01.124Z,2894.1
2018-03-26T17:56:01.234Z,2627.7
2018-03-26T17:57:01.087Z,2378.7
2018-03-26T17:58:01.088Z,2146.6
2018-03-26T17:59:01.090Z,1930.5
2018-03-26T18:00:01.088Z,1730.3
2018-03-26T18:01:01.264Z,1545.9
2018-03-26T18:02:01.088Z,1376.8
2018-03-26T18:03:01.091Z,1222.5
2018-03-26T18:04:01.088Z,1082.1
2018-03-26T18:05:01.091Z,954.6
2018-03-26T18:06:01.271Z,839.1
2018-03-26T18:07:01.095Z,735.2
2018-03-26T18:08:01.096Z,642.2
2018-03-26T18:09:01.089Z,559.3
2018-03-26T18:10:01.136Z,485.4
2018-03-26T18:11:01.264Z,419.8
2018-03-26T18:12:01.088Z,361.9
2018-03-26T18:13:01.117Z,311.3
2018-03-26T18:14:01.089Z,267.5
2018-03-26T18:15:01.091Z,229.9
2018-03-26T18:16:01.232Z,197.3
2018-03-26T18:17:01.090Z,168.8
2018-03-26T18:18:01.117Z,143.9
2018-03-26T18:19:01.096Z,122.3
2018-03-26T18:20:01.104Z,103.6
2018-03-26T18:21:01.235Z,87.6
2018-03-26T18:22:01.125Z,73.9
2018-03-26T18:23:01.102Z,62.1
2018-03-26T18:24:01.091Z,52.0
2018-03-26T18:25:01.094Z,43.5
2018-03-26T18:26:01.229Z,36.3
2018-03-26T18:27:01.118Z,30.2
2018-03-26T18:28:01.100Z,25.1
2018-03-26T18:29:01.120Z,20.9
2018-03-26T18:30:01.094Z,17.5
2018-03-26T18:31:01.295Z,14.7
2018-03-26T18:32:01.096Z,12.3
2018-03-26T18:33:01.093Z,10.4
2018-03-26T18:34:01.125Z,8.8
2018-03-26T18:35:01.096Z,7.5
2018-03-26T18:36:01.311Z,6.3
2018-03-26T18:37:01.093Z,5.4
2018-03-26T18:38:01.098Z,4.6
2018-03-26T18:39:01.138Z,3.9
2018-03-26T18:40:01.095Z,3.4
2018-03-26T18:41:01.243Z,2.9
2018-03-26T18:42:01.098Z,2.5
2018-03-26T18:43:01.096Z,2.2
2018-03-26T18:44:01.122Z,1.9
2018-03-26T18:45:01.113Z,1.7
2018-03-26T18:46:01.286Z,1.5
2018-03-26T18:47:01.097Z,1.4
2018-03-26T18:48:01.101Z,1.3
2018-03-26T18:49:01.104Z,1.2
2018-03-26T18:50:01.097Z,1.1
2018-03-26T18:51:01.274Z,1.0
2018-03-26T18:53:01.086Z,0.9
2018-03-26T18:59:01.110Z,0.8
2018-03-26T19:00:01.086Z,0.7
2018-03-26T19:02:01.230Z,0.6
2018-03-26T19:06:01.118Z,0.5
2018-03-26T19:09:01.127Z,0.4
2018-03-26T19:10:01.086Z,0.3
2018-03-26T19:12:01.231Z,0.2
2018-03-26T19:15:01.117Z,0.2
2018-03-26T19:18:01.231Z,0.1
2018-03-26T20:20:01.215Z,0.1
2018-03-26T20:30:01.179Z,0.1
2018-03-26T20:45:01.327Z,0.1
